Řízení letového provozu České republiky
Letiste: LKPR Aktualizace: 11.12.2019 06:30:26  UTC
 METAR LKPR 11.12. 06:30 ...
METAR LKPR 110630Z 16010KT CAVOK M03/M05 Q1017 NOSIG RMK REG QNH 1012=
 TAF LKPR 11.12. 05:00 ...
TAF LKPR 110500Z 1106/1212 16006KT CAVOK      BECMG 1201/1203 9999 OVC022      TEMPO 1209/1212 9000 -SN OVC014=